sensor_id;sensor_type;location;lat;lon;timestamp;P1;durP1;ratioP1;P2;durP2;ratioP2
12906;SDS011;6521;50.498;8.474;2024-01-30T00:01:29;26.53;;;17.50;;
12906;SDS011;6521;50.498;8.474;2024-01-30T00:04:00;25.40;;;16.07;;
12906;SDS011;6521;50.498;8.474;2024-01-30T00:06:30;25.60;;;17.50;;
12906;SDS011;6521;50.498;8.474;2024-01-30T00:09:01;29.17;;;17.67;;
12906;SDS011;6521;50.498;8.474;2024-01-30T00:11:32;26.70;;;18.07;;
12906;SDS011;6521;50.498;8.474;2024-01-30T00:14:03;24.00;;;17.13;;
12906;SDS011;6521;50.498;8.474;2024-01-30T00:16:34;24.57;;;17.30;;
12906;SDS011;6521;50.498;8.474;2024-01-30T00:19:05;29.57;;;17.63;;
12906;SDS011;6521;50.498;8.474;2024-01-30T00:21:36;27.93;;;17.80;;
12906;SDS011;6521;50.498;8.474;2024-01-30T00:24:10;28.87;;;17.33;;
12906;SDS011;6521;50.498;8.474;2024-01-30T00:26:41;26.13;;;18.50;;
12906;SDS011;6521;50.498;8.474;2024-01-30T00:29:11;25.00;;;17.17;;
12906;SDS011;6521;50.498;8.474;2024-01-30T00:31:42;27.20;;;17.60;;
12906;SDS011;6521;50.498;8.474;2024-01-30T00:34:13;25.03;;;17.33;;
12906;SDS011;6521;50.498;8.474;2024-01-30T00:36:45;23.83;;;17.33;;
12906;SDS011;6521;50.498;8.474;2024-01-30T00:39:17;24.80;;;16.73;;
12906;SDS011;6521;50.498;8.474;2024-01-30T00:41:49;26.90;;;18.37;;
12906;SDS011;6521;50.498;8.474;2024-01-30T00:44:20;27.87;;;17.77;;
12906;SDS011;6521;50.498;8.474;2024-01-30T00:46:51;27.37;;;18.73;;
12906;SDS011;6521;50.498;8.474;2024-01-30T00:49:24;27.03;;;17.40;;
12906;SDS011;6521;50.498;8.474;2024-01-30T00:51:56;23.93;;;16.87;;
12906;SDS011;6521;50.498;8.474;2024-01-30T00:54:28;23.03;;;17.50;;
12906;SDS011;6521;50.498;8.474;2024-01-30T00:56:59;23.30;;;16.60;;
12906;SDS011;6521;50.498;8.474;2024-01-30T00:59:29;25.93;;;18.17;;
12906;SDS011;6521;50.498;8.474;2024-01-30T01:02:02;24.40;;;17.77;;
12906;SDS011;6521;50.498;8.474;2024-01-30T01:04:33;25.53;;;17.27;;
12906;SDS011;6521;50.498;8.474;2024-01-30T01:07:07;26.83;;;17.63;;
12906;SDS011;6521;50.498;8.474;2024-01-30T01:09:38;25.67;;;17.80;;
12906;SDS011;6521;50.498;8.474;2024-01-30T01:12:09;26.83;;;17.80;;
12906;SDS011;6521;50.498;8.474;2024-01-30T01:14:41;26.80;;;17.10;;
12906;SDS011;6521;50.498;8.474;2024-01-30T01:17:12;26.73;;;18.07;;
12906;SDS011;6521;50.498;8.474;2024-01-30T01:19:45;28.80;;;18.30;;
12906;SDS011;6521;50.498;8.474;2024-01-30T01:22:16;23.57;;;17.00;;
12906;SDS011;6521;50.498;8.474;2024-01-30T01:24:47;25.37;;;16.60;;
12906;SDS011;6521;50.498;8.474;2024-01-30T01:27:18;26.53;;;16.77;;
12906;SDS011;6521;50.498;8.474;2024-01-30T01:29:49;26.03;;;18.60;;
12906;SDS011;6521;50.498;8.474;2024-01-30T01:32:19;26.03;;;18.00;;
12906;SDS011;6521;50.498;8.474;2024-01-30T01:34:50;29.43;;;19.13;;
12906;SDS011;6521;50.498;8.474;2024-01-30T01:37:22;26.67;;;17.73;;
12906;SDS011;6521;50.498;8.474;2024-01-30T01:39:57;25.37;;;17.97;;
12906;SDS011;6521;50.498;8.474;2024-01-30T01:42:28;23.60;;;18.07;;
12906;SDS011;6521;50.498;8.474;2024-01-30T01:45:02;29.40;;;18.63;;
12906;SDS011;6521;50.498;8.474;2024-01-30T01:47:33;23.87;;;17.53;;
12906;SDS011;6521;50.498;8.474;2024-01-30T01:50:04;25.10;;;17.03;;
12906;SDS011;6521;50.498;8.474;2024-01-30T01:52:37;23.10;;;17.20;;
12906;SDS011;6521;50.498;8.474;2024-01-30T01:55:10;29.03;;;18.73;;
12906;SDS011;6521;50.498;8.474;2024-01-30T01:57:42;38.03;;;17.97;;
12906;SDS011;6521;50.498;8.474;2024-01-30T02:00:13;26.67;;;18.63;;
12906;SDS011;6521;50.498;8.474;2024-01-30T02:02:45;26.87;;;17.90;;
12906;SDS011;6521;50.498;8.474;2024-01-30T02:05:18;31.53;;;17.80;;
12906;SDS011;6521;50.498;8.474;2024-01-30T02:07:49;25.97;;;18.03;;
12906;SDS011;6521;50.498;8.474;2024-01-30T02:10:25;22.97;;;16.73;;
12906;SDS011;6521;50.498;8.474;2024-01-30T02:12:55;28.90;;;18.93;;
12906;SDS011;6521;50.498;8.474;2024-01-30T02:15:28;28.43;;;16.83;;
12906;SDS011;6521;50.498;8.474;2024-01-30T02:18:00;28.83;;;18.60;;
12906;SDS011;6521;50.498;8.474;2024-01-30T02:20:31;25.57;;;18.20;;
12906;SDS011;6521;50.498;8.474;2024-01-30T02:23:06;26.13;;;17.90;;
12906;SDS011;6521;50.498;8.474;2024-01-30T02:25:39;25.97;;;18.67;;
12906;SDS011;6521;50.498;8.474;2024-01-30T02:28:16;28.60;;;18.73;;
12906;SDS011;6521;50.498;8.474;2024-01-30T02:30:47;29.03;;;19.97;;
12906;SDS011;6521;50.498;8.474;2024-01-30T02:33:18;30.70;;;18.73;;
12906;SDS011;6521;50.498;8.474;2024-01-30T02:35:52;24.70;;;18.03;;
12906;SDS011;6521;50.498;8.474;2024-01-30T02:38:23;28.43;;;16.93;;
12906;SDS011;6521;50.498;8.474;2024-01-30T02:40:58;23.87;;;16.73;;
12906;SDS011;6521;50.498;8.474;2024-01-30T02:43:29;22.20;;;16.57;;
12906;SDS011;6521;50.498;8.474;2024-01-30T02:46:01;23.33;;;16.63;;
12906;SDS011;6521;50.498;8.474;2024-01-30T02:48:36;24.60;;;17.43;;
12906;SDS011;6521;50.498;8.474;2024-01-30T02:51:11;25.57;;;17.43;;
12906;SDS011;6521;50.498;8.474;2024-01-30T02:53:42;30.00;;;18.07;;
12906;SDS011;6521;50.498;8.474;2024-01-30T02:56:13;25.60;;;17.70;;
12906;SDS011;6521;50.498;8.474;2024-01-30T02:58:44;32.57;;;18.13;;
12906;SDS011;6521;50.498;8.474;2024-01-30T03:01:19;24.87;;;18.00;;
12906;SDS011;6521;50.498;8.474;2024-01-30T03:03:50;26.00;;;17.33;;
12906;SDS011;6521;50.498;8.474;2024-01-30T03:06:21;25.20;;;16.90;;
12906;SDS011;6521;50.498;8.474;2024-01-30T03:08:54;26.73;;;17.97;;
12906;SDS011;6521;50.498;8.474;2024-01-30T03:11:24;24.80;;;18.03;;
12906;SDS011;6521;50.498;8.474;2024-01-30T03:13:56;21.93;;;15.80;;
12906;SDS011;6521;50.498;8.474;2024-01-30T03:16:27;21.60;;;16.90;;
12906;SDS011;6521;50.498;8.474;2024-01-30T03:19:00;21.67;;;15.70;;
12906;SDS011;6521;50.498;8.474;2024-01-30T03:21:34;21.03;;;15.67;;
12906;SDS011;6521;50.498;8.474;2024-01-30T03:24:06;21.40;;;16.30;;
12906;SDS011;6521;50.498;8.474;2024-01-30T03:26:40;21.27;;;16.40;;
12906;SDS011;6521;50.498;8.474;2024-01-30T03:29:11;23.80;;;16.23;;
12906;SDS011;6521;50.498;8.474;2024-01-30T03:31:42;23.60;;;16.27;;
12906;SDS011;6521;50.498;8.474;2024-01-30T03:34:13;23.53;;;15.67;;
12906;SDS011;6521;50.498;8.474;2024-01-30T03:36:45;23.97;;;16.57;;
12906;SDS011;6521;50.498;8.474;2024-01-30T03:39:16;24.10;;;17.13;;
12906;SDS011;6521;50.498;8.474;2024-01-30T03:41:48;21.33;;;15.83;;
12906;SDS011;6521;50.498;8.474;2024-01-30T03:44:20;25.80;;;16.70;;
12906;SDS011;6521;50.498;8.474;2024-01-30T03:46:51;24.40;;;16.83;;
12906;SDS011;6521;50.498;8.474;2024-01-30T03:49:22;21.87;;;15.47;;
12906;SDS011;6521;50.498;8.474;2024-01-30T03:51:53;18.13;;;15.07;;
12906;SDS011;6521;50.498;8.474;2024-01-30T03:54:25;19.40;;;14.90;;
12906;SDS011;6521;50.498;8.474;2024-01-30T03:56:58;21.50;;;15.50;;
12906;SDS011;6521;50.498;8.474;2024-01-30T03:59:29;21.60;;;16.07;;
12906;SDS011;6521;50.498;8.474;2024-01-30T04:02:01;18.20;;;14.87;;
12906;SDS011;6521;50.498;8.474;2024-01-30T04:04:32;19.13;;;15.27;;
12906;SDS011;6521;50.498;8.474;2024-01-30T04:07:04;18.80;;;14.57;;
12906;SDS011;6521;50.498;8.474;2024-01-30T04:09:35;20.07;;;15.60;;
12906;SDS011;6521;50.498;8.474;2024-01-30T04:12:07;20.30;;;14.90;;
12906;SDS011;6521;50.498;8.474;2024-01-30T04:14:39;20.37;;;15.23;;
12906;SDS011;6521;50.498;8.474;2024-01-30T04:17:09;21.33;;;15.23;;
12906;SDS011;6521;50.498;8.474;2024-01-30T04:19:41;24.63;;;15.83;;
12906;SDS011;6521;50.498;8.474;2024-01-30T04:22:12;21.13;;;15.97;;
12906;SDS011;6521;50.498;8.474;2024-01-30T04:24:43;22.03;;;16.17;;
12906;SDS011;6521;50.498;8.474;2024-01-30T04:27:17;23.13;;;16.37;;
12906;SDS011;6521;50.498;8.474;2024-01-30T04:29:47;21.63;;;16.27;;
12906;SDS011;6521;50.498;8.474;2024-01-30T04:32:22;21.73;;;15.97;;
12906;SDS011;6521;50.498;8.474;2024-01-30T04:34:54;24.40;;;16.73;;
12906;SDS011;6521;50.498;8.474;2024-01-30T04:37:25;22.20;;;16.07;;
12906;SDS011;6521;50.498;8.474;2024-01-30T04:39:56;22.20;;;16.03;;
12906;SDS011;6521;50.498;8.474;2024-01-30T04:42:27;22.27;;;15.97;;
12906;SDS011;6521;50.498;8.474;2024-01-30T04:44:58;19.10;;;14.60;;
12906;SDS011;6521;50.498;8.474;2024-01-30T04:47:29;21.70;;;15.87;;
12906;SDS011;6521;50.498;8.474;2024-01-30T04:50:01;24.97;;;15.93;;
12906;SDS011;6521;50.498;8.474;2024-01-30T04:52:32;24.50;;;15.50;;
12906;SDS011;6521;50.498;8.474;2024-01-30T04:55:03;23.03;;;15.57;;
12906;SDS011;6521;50.498;8.474;2024-01-30T04:57:35;23.07;;;16.87;;
12906;SDS011;6521;50.498;8.474;2024-01-30T05:00:06;24.23;;;16.57;;
12906;SDS011;6521;50.498;8.474;2024-01-30T05:02:40;25.90;;;17.97;;
12906;SDS011;6521;50.498;8.474;2024-01-30T05:05:12;26.83;;;18.90;;
12906;SDS011;6521;50.498;8.474;2024-01-30T05:07:43;26.33;;;18.83;;
12906;SDS011;6521;50.498;8.474;2024-01-30T05:10:16;26.40;;;18.97;;
12906;SDS011;6521;50.498;8.474;2024-01-30T05:12:47;28.60;;;18.33;;
12906;SDS011;6521;50.498;8.474;2024-01-30T05:15:22;23.53;;;17.53;;
12906;SDS011;6521;50.498;8.474;2024-01-30T05:17:55;25.53;;;17.60;;
12906;SDS011;6521;50.498;8.474;2024-01-30T05:20:26;25.93;;;18.20;;
12906;SDS011;6521;50.498;8.474;2024-01-30T05:23:00;28.00;;;18.20;;
12906;SDS011;6521;50.498;8.474;2024-01-30T05:25:31;23.60;;;17.53;;
12906;SDS011;6521;50.498;8.474;2024-01-30T05:28:05;24.27;;;18.33;;
12906;SDS011;6521;50.498;8.474;2024-01-30T05:30:37;24.50;;;16.53;;
12906;SDS011;6521;50.498;8.474;2024-01-30T05:33:08;28.43;;;18.00;;
12906;SDS011;6521;50.498;8.474;2024-01-30T05:35:40;28.47;;;17.87;;
12906;SDS011;6521;50.498;8.474;2024-01-30T05:38:11;26.30;;;18.20;;
12906;SDS011;6521;50.498;8.474;2024-01-30T05:40:42;28.53;;;19.27;;
12906;SDS011;6521;50.498;8.474;2024-01-30T05:43:12;22.80;;;17.77;;
12906;SDS011;6521;50.498;8.474;2024-01-30T05:45:45;25.63;;;17.80;;
12906;SDS011;6521;50.498;8.474;2024-01-30T05:48:16;25.23;;;17.83;;
12906;SDS011;6521;50.498;8.474;2024-01-30T05:50:49;22.10;;;16.70;;
12906;SDS011;6521;50.498;8.474;2024-01-30T05:53:20;22.50;;;16.57;;
12906;SDS011;6521;50.498;8.474;2024-01-30T05:55:51;28.03;;;17.53;;
12906;SDS011;6521;50.498;8.474;2024-01-30T05:58:23;22.73;;;15.93;;
12906;SDS011;6521;50.498;8.474;2024-01-30T06:00:53;19.73;;;15.53;;
12906;SDS011;6521;50.498;8.474;2024-01-30T06:03:25;22.87;;;15.73;;
12906;SDS011;6521;50.498;8.474;2024-01-30T06:05:56;25.57;;;17.07;;
12906;SDS011;6521;50.498;8.474;2024-01-30T06:08:27;24.93;;;17.00;;
12906;SDS011;6521;50.498;8.474;2024-01-30T06:10:58;23.20;;;15.33;;
12906;SDS011;6521;50.498;8.474;2024-01-30T06:13:31;21.77;;;15.97;;
12906;SDS011;6521;50.498;8.474;2024-01-30T06:16:03;25.57;;;16.73;;
12906;SDS011;6521;50.498;8.474;2024-01-30T06:18:34;23.20;;;16.53;;
12906;SDS011;6521;50.498;8.474;2024-01-30T06:21:05;24.43;;;16.03;;
12906;SDS011;6521;50.498;8.474;2024-01-30T06:23:37;28.50;;;16.47;;
12906;SDS011;6521;50.498;8.474;2024-01-30T06:26:08;22.50;;;16.07;;
12906;SDS011;6521;50.498;8.474;2024-01-30T06:28:39;24.63;;;17.40;;
12906;SDS011;6521;50.498;8.474;2024-01-30T06:31:10;22.43;;;16.07;;
12906;SDS011;6521;50.498;8.474;2024-01-30T06:33:43;25.20;;;17.70;;
12906;SDS011;6521;50.498;8.474;2024-01-30T06:36:14;23.37;;;16.63;;
12906;SDS011;6521;50.498;8.474;2024-01-30T06:38:45;23.40;;;17.13;;
12906;SDS011;6521;50.498;8.474;2024-01-30T06:41:19;26.27;;;16.40;;
12906;SDS011;6521;50.498;8.474;2024-01-30T06:43:49;27.57;;;16.50;;
12906;SDS011;6521;50.498;8.474;2024-01-30T06:46:20;27.70;;;16.57;;
12906;SDS011;6521;50.498;8.474;2024-01-30T06:48:52;31.87;;;16.67;;
12906;SDS011;6521;50.498;8.474;2024-01-30T06:51:23;25.63;;;15.93;;
12906;SDS011;6521;50.498;8.474;2024-01-30T06:53:54;25.27;;;14.70;;
12906;SDS011;6521;50.498;8.474;2024-01-30T06:56:25;29.20;;;16.37;;
12906;SDS011;6521;50.498;8.474;2024-01-30T06:58:57;25.47;;;15.43;;
12906;SDS011;6521;50.498;8.474;2024-01-30T07:01:29;24.00;;;15.47;;
12906;SDS011;6521;50.498;8.474;2024-01-30T07:04:01;24.07;;;15.40;;
12906;SDS011;6521;50.498;8.474;2024-01-30T07:06:32;24.20;;;16.10;;
12906;SDS011;6521;50.498;8.474;2024-01-30T07:09:03;28.37;;;15.17;;
12906;SDS011;6521;50.498;8.474;2024-01-30T07:11:34;30.20;;;17.27;;
12906;SDS011;6521;50.498;8.474;2024-01-30T07:14:04;24.00;;;16.37;;
12906;SDS011;6521;50.498;8.474;2024-01-30T07:16:35;25.70;;;16.73;;
12906;SDS011;6521;50.498;8.474;2024-01-30T07:19:06;24.47;;;18.47;;
12906;SDS011;6521;50.498;8.474;2024-01-30T07:21:39;27.53;;;18.80;;
12906;SDS011;6521;50.498;8.474;2024-01-30T07:24:11;28.57;;;18.43;;
12906;SDS011;6521;50.498;8.474;2024-01-30T07:26:43;31.47;;;19.40;;
12906;SDS011;6521;50.498;8.474;2024-01-30T07:29:14;41.27;;;20.43;;
12906;SDS011;6521;50.498;8.474;2024-01-30T07:31:46;37.03;;;21.43;;
12906;SDS011;6521;50.498;8.474;2024-01-30T07:34:20;32.23;;;21.53;;
12906;SDS011;6521;50.498;8.474;2024-01-30T07:36:52;33.93;;;22.23;;
12906;SDS011;6521;50.498;8.474;2024-01-30T07:39:23;36.07;;;21.13;;
12906;SDS011;6521;50.498;8.474;2024-01-30T07:41:55;30.77;;;21.27;;
12906;SDS011;6521;50.498;8.474;2024-01-30T07:44:27;31.47;;;21.20;;
12906;SDS011;6521;50.498;8.474;2024-01-30T07:47:04;28.83;;;18.30;;
12906;SDS011;6521;50.498;8.474;2024-01-30T07:49:37;23.43;;;17.73;;
12906;SDS011;6521;50.498;8.474;2024-01-30T07:52:08;26.77;;;19.13;;
12906;SDS011;6521;50.498;8.474;2024-01-30T07:54:41;30.10;;;18.60;;
12906;SDS011;6521;50.498;8.474;2024-01-30T07:57:12;24.33;;;18.03;;
12906;SDS011;6521;50.498;8.474;2024-01-30T07:59:43;32.10;;;19.80;;
12906;SDS011;6521;50.498;8.474;2024-01-30T08:02:15;26.87;;;19.67;;
12906;SDS011;6521;50.498;8.474;2024-01-30T08:04:45;24.97;;;18.57;;
12906;SDS011;6521;50.498;8.474;2024-01-30T08:07:19;28.10;;;18.87;;
12906;SDS011;6521;50.498;8.474;2024-01-30T08:09:51;27.90;;;19.37;;
12906;SDS011;6521;50.498;8.474;2024-01-30T08:12:26;26.00;;;17.77;;
12906;SDS011;6521;50.498;8.474;2024-01-30T08:14:57;29.27;;;18.70;;
12906;SDS011;6521;50.498;8.474;2024-01-30T08:17:27;32.33;;;19.80;;
12906;SDS011;6521;50.498;8.474;2024-01-30T08:20:01;30.97;;;19.40;;
12906;SDS011;6521;50.498;8.474;2024-01-30T08:22:35;26.90;;;19.33;;
12906;SDS011;6521;50.498;8.474;2024-01-30T08:25:08;29.30;;;19.90;;
12906;SDS011;6521;50.498;8.474;2024-01-30T08:27:40;30.90;;;19.57;;
12906;SDS011;6521;50.498;8.474;2024-01-30T08:30:11;32.70;;;20.33;;
12906;SDS011;6521;50.498;8.474;2024-01-30T08:32:42;34.97;;;22.17;;
12906;SDS011;6521;50.498;8.474;2024-01-30T08:35:13;31.07;;;20.23;;
12906;SDS011;6521;50.498;8.474;2024-01-30T08:37:46;30.53;;;20.63;;
12906;SDS011;6521;50.498;8.474;2024-01-30T08:40:17;31.67;;;21.10;;
12906;SDS011;6521;50.498;8.474;2024-01-30T08:42:49;35.03;;;22.63;;
12906;SDS011;6521;50.498;8.474;2024-01-30T08:45:22;32.80;;;21.77;;
12906;SDS011;6521;50.498;8.474;2024-01-30T08:47:55;34.27;;;21.13;;
12906;SDS011;6521;50.498;8.474;2024-01-30T08:50:28;27.50;;;19.20;;
12906;SDS011;6521;50.498;8.474;2024-01-30T08:53:04;32.37;;;19.33;;
12906;SDS011;6521;50.498;8.474;2024-01-30T08:55:34;31.03;;;19.37;;
12906;SDS011;6521;50.498;8.474;2024-01-30T08:58:05;29.30;;;19.03;;
12906;SDS011;6521;50.498;8.474;2024-01-30T09:00:36;25.03;;;18.20;;
12906;SDS011;6521;50.498;8.474;2024-01-30T09:03:07;31.00;;;18.57;;
12906;SDS011;6521;50.498;8.474;2024-01-30T09:05:39;25.63;;;19.53;;
12906;SDS011;6521;50.498;8.474;2024-01-30T09:08:10;27.47;;;19.33;;
12906;SDS011;6521;50.498;8.474;2024-01-30T09:10:41;28.00;;;18.63;;
12906;SDS011;6521;50.498;8.474;2024-01-30T09:13:12;32.90;;;20.40;;
12906;SDS011;6521;50.498;8.474;2024-01-30T09:15:43;28.33;;;18.47;;
12906;SDS011;6521;50.498;8.474;2024-01-30T09:18:14;32.17;;;18.43;;
12906;SDS011;6521;50.498;8.474;2024-01-30T09:20:45;30.40;;;19.10;;
12906;SDS011;6521;50.498;8.474;2024-01-30T09:23:18;32.23;;;19.40;;
12906;SDS011;6521;50.498;8.474;2024-01-30T09:25:51;29.47;;;20.37;;
12906;SDS011;6521;50.498;8.474;2024-01-30T09:28:24;32.80;;;20.43;;
12906;SDS011;6521;50.498;8.474;2024-01-30T09:30:54;31.00;;;19.83;;
12906;SDS011;6521;50.498;8.474;2024-01-30T09:33:28;31.03;;;21.43;;
12906;SDS011;6521;50.498;8.474;2024-01-30T09:35:58;25.97;;;20.10;;
12906;SDS011;6521;50.498;8.474;2024-01-30T09:38:29;29.30;;;19.57;;
12906;SDS011;6521;50.498;8.474;2024-01-30T09:41:00;32.47;;;20.90;;
12906;SDS011;6521;50.498;8.474;2024-01-30T09:43:36;24.73;;;19.23;;
12906;SDS011;6521;50.498;8.474;2024-01-30T09:46:12;27.13;;;19.30;;
12906;SDS011;6521;50.498;8.474;2024-01-30T09:48:48;23.93;;;18.23;;
12906;SDS011;6521;50.498;8.474;2024-01-30T09:51:20;29.57;;;18.23;;
12906;SDS011;6521;50.498;8.474;2024-01-30T09:53:53;27.97;;;19.03;;
12906;SDS011;6521;50.498;8.474;2024-01-30T09:56:25;34.63;;;18.20;;
12906;SDS011;6521;50.498;8.474;2024-01-30T09:58:55;23.40;;;17.87;;
12906;SDS011;6521;50.498;8.474;2024-01-30T10:01:29;28.00;;;18.13;;
12906;SDS011;6521;50.498;8.474;2024-01-30T10:04:04;31.93;;;19.53;;
12906;SDS011;6521;50.498;8.474;2024-01-30T10:06:35;27.20;;;19.83;;
12906;SDS011;6521;50.498;8.474;2024-01-30T10:09:06;24.17;;;18.03;;
12906;SDS011;6521;50.498;8.474;2024-01-30T10:11:37;25.07;;;18.80;;
12906;SDS011;6521;50.498;8.474;2024-01-30T10:14:09;26.03;;;19.03;;
12906;SDS011;6521;50.498;8.474;2024-01-30T10:16:41;22.27;;;17.73;;
12906;SDS011;6521;50.498;8.474;2024-01-30T10:19:15;24.77;;;17.93;;
12906;SDS011;6521;50.498;8.474;2024-01-30T10:21:46;27.23;;;18.53;;
12906;SDS011;6521;50.498;8.474;2024-01-30T10:24:17;23.87;;;18.67;;
12906;SDS011;6521;50.498;8.474;2024-01-30T10:26:52;24.50;;;19.17;;
12906;SDS011;6521;50.498;8.474;2024-01-30T10:29:26;25.63;;;18.63;;
12906;SDS011;6521;50.498;8.474;2024-01-30T10:31:58;24.03;;;17.90;;
12906;SDS011;6521;50.498;8.474;2024-01-30T10:34:32;26.87;;;19.77;;
12906;SDS011;6521;50.498;8.474;2024-01-30T10:37:08;31.17;;;17.30;;
12906;SDS011;6521;50.498;8.474;2024-01-30T10:39:48;22.67;;;18.50;;
12906;SDS011;6521;50.498;8.474;2024-01-30T10:42:21;24.43;;;18.27;;
12906;SDS011;6521;50.498;8.474;2024-01-30T10:45:00;23.30;;;18.00;;
12906;SDS011;6521;50.498;8.474;2024-01-30T10:47:37;30.17;;;19.23;;
12906;SDS011;6521;50.498;8.474;2024-01-30T10:50:11;28.80;;;20.53;;
12906;SDS011;6521;50.498;8.474;2024-01-30T10:52:42;26.13;;;20.10;;
12906;SDS011;6521;50.498;8.474;2024-01-30T10:55:14;24.70;;;19.10;;
12906;SDS011;6521;50.498;8.474;2024-01-30T10:57:47;34.80;;;24.17;;
12906;SDS011;6521;50.498;8.474;2024-01-30T11:00:18;36.83;;;25.00;;
12906;SDS011;6521;50.498;8.474;2024-01-30T11:02:54;33.07;;;22.73;;
12906;SDS011;6521;50.498;8.474;2024-01-30T11:05:25;26.17;;;20.07;;
12906;SDS011;6521;50.498;8.474;2024-01-30T11:08:43;25.33;;;19.40;;
12906;SDS011;6521;50.498;8.474;2024-01-30T11:10:56;26.50;;;19.00;;
12906;SDS011;6521;50.498;8.474;2024-01-30T11:13:31;23.43;;;18.23;;
12906;SDS011;6521;50.498;8.474;2024-01-30T11:16:05;24.13;;;19.93;;
12906;SDS011;6521;50.498;8.474;2024-01-30T11:18:39;29.90;;;19.13;;
12906;SDS011;6521;50.498;8.474;2024-01-30T11:21:11;25.53;;;18.23;;
12906;SDS011;6521;50.498;8.474;2024-01-30T11:23:44;24.60;;;18.40;;
12906;SDS011;6521;50.498;8.474;2024-01-30T11:26:15;25.13;;;18.53;;
12906;SDS011;6521;50.498;8.474;2024-01-30T11:28:54;22.47;;;19.53;;
12906;SDS011;6521;50.498;8.474;2024-01-30T11:31:27;22.50;;;17.83;;
12906;SDS011;6521;50.498;8.474;2024-01-30T11:33:59;24.67;;;18.10;;
12906;SDS011;6521;50.498;8.474;2024-01-30T11:36:31;24.27;;;18.07;;
12906;SDS011;6521;50.498;8.474;2024-01-30T11:39:05;21.03;;;17.70;;
12906;SDS011;6521;50.498;8.474;2024-01-30T11:41:36;24.83;;;17.10;;
12906;SDS011;6521;50.498;8.474;2024-01-30T11:44:08;28.83;;;18.30;;
12906;SDS011;6521;50.498;8.474;2024-01-30T11:46:39;26.70;;;17.70;;
12906;SDS011;6521;50.498;8.474;2024-01-30T11:49:12;29.60;;;17.70;;
12906;SDS011;6521;50.498;8.474;2024-01-30T11:51:47;21.20;;;17.00;;
12906;SDS011;6521;50.498;8.474;2024-01-30T11:54:19;20.67;;;16.43;;
12906;SDS011;6521;50.498;8.474;2024-01-30T11:56:50;24.13;;;17.80;;
12906;SDS011;6521;50.498;8.474;2024-01-30T11:59:22;22.13;;;17.27;;
12906;SDS011;6521;50.498;8.474;2024-01-30T12:01:52;22.07;;;17.70;;
12906;SDS011;6521;50.498;8.474;2024-01-30T12:04:28;21.23;;;17.03;;
12906;SDS011;6521;50.498;8.474;2024-01-30T12:07:00;25.67;;;17.73;;
12906;SDS011;6521;50.498;8.474;2024-01-30T12:09:32;24.03;;;18.03;;
12906;SDS011;6521;50.498;8.474;2024-01-30T12:12:03;26.07;;;17.17;;
12906;SDS011;6521;50.498;8.474;2024-01-30T12:14:35;24.87;;;18.00;;
12906;SDS011;6521;50.498;8.474;2024-01-30T12:17:08;19.73;;;15.63;;
12906;SDS011;6521;50.498;8.474;2024-01-30T12:19:39;21.67;;;17.17;;
12906;SDS011;6521;50.498;8.474;2024-01-30T12:22:10;21.80;;;17.17;;
12906;SDS011;6521;50.498;8.474;2024-01-30T12:24:41;23.33;;;17.20;;
12906;SDS011;6521;50.498;8.474;2024-01-30T12:27:17;22.67;;;15.97;;
12906;SDS011;6521;50.498;8.474;2024-01-30T12:29:47;24.77;;;16.83;;
12906;SDS011;6521;50.498;8.474;2024-01-30T12:32:18;23.63;;;17.53;;
12906;SDS011;6521;50.498;8.474;2024-01-30T12:34:50;23.07;;;17.27;;
12906;SDS011;6521;50.498;8.474;2024-01-30T12:37:24;21.47;;;17.17;;
12906;SDS011;6521;50.498;8.474;2024-01-30T12:39:57;21.90;;;17.60;;
12906;SDS011;6521;50.498;8.474;2024-01-30T12:42:28;27.00;;;17.70;;
12906;SDS011;6521;50.498;8.474;2024-01-30T12:45:08;25.37;;;17.80;;
12906;SDS011;6521;50.498;8.474;2024-01-30T12:47:43;26.27;;;16.37;;
12906;SDS011;6521;50.498;8.474;2024-01-30T12:50:15;21.27;;;16.37;;
12906;SDS011;6521;50.498;8.474;2024-01-30T12:52:47;21.10;;;16.70;;
12906;SDS011;6521;50.498;8.474;2024-01-30T12:55:18;22.50;;;16.83;;
12906;SDS011;6521;50.498;8.474;2024-01-30T12:57:52;20.20;;;16.67;;
12906;SDS011;6521;50.498;8.474;2024-01-30T13:00:22;22.90;;;16.60;;
12906;SDS011;6521;50.498;8.474;2024-01-30T13:02:53;23.73;;;16.70;;
12906;SDS011;6521;50.498;8.474;2024-01-30T13:05:24;20.70;;;15.27;;
12906;SDS011;6521;50.498;8.474;2024-01-30T13:08:00;21.73;;;16.60;;
12906;SDS011;6521;50.498;8.474;2024-01-30T13:10:33;21.90;;;17.30;;
12906;SDS011;6521;50.498;8.474;2024-01-30T13:13:04;25.13;;;16.53;;
12906;SDS011;6521;50.498;8.474;2024-01-30T13:15:34;22.50;;;17.33;;
12906;SDS011;6521;50.498;8.474;2024-01-30T13:18:05;26.67;;;17.80;;
12906;SDS011;6521;50.498;8.474;2024-01-30T13:20:41;23.60;;;17.80;;
12906;SDS011;6521;50.498;8.474;2024-01-30T13:23:12;26.03;;;18.23;;
12906;SDS011;6521;50.498;8.474;2024-01-30T13:25:45;22.83;;;17.87;;
12906;SDS011;6521;50.498;8.474;2024-01-30T13:28:15;22.73;;;18.30;;
12906;SDS011;6521;50.498;8.474;2024-01-30T13:30:46;22.33;;;18.47;;
12906;SDS011;6521;50.498;8.474;2024-01-30T13:33:18;22.33;;;18.30;;
12906;SDS011;6521;50.498;8.474;2024-01-30T13:35:49;26.47;;;18.53;;
12906;SDS011;6521;50.498;8.474;2024-01-30T13:38:21;23.67;;;17.20;;
12906;SDS011;6521;50.498;8.474;2024-01-30T13:40:52;24.93;;;17.90;;
12906;SDS011;6521;50.498;8.474;2024-01-30T13:43:26;25.87;;;19.17;;
12906;SDS011;6521;50.498;8.474;2024-01-30T13:45:59;22.40;;;18.07;;
12906;SDS011;6521;50.498;8.474;2024-01-30T13:48:30;25.07;;;18.27;;
12906;SDS011;6521;50.498;8.474;2024-01-30T13:51:01;21.53;;;17.43;;
12906;SDS011;6521;50.498;8.474;2024-01-30T13:53:33;20.80;;;17.97;;
12906;SDS011;6521;50.498;8.474;2024-01-30T13:56:04;22.63;;;18.10;;
12906;SDS011;6521;50.498;8.474;2024-01-30T13:58:35;23.33;;;18.43;;
12906;SDS011;6521;50.498;8.474;2024-01-30T14:01:10;23.97;;;17.97;;
12906;SDS011;6521;50.498;8.474;2024-01-30T14:03:43;25.17;;;18.70;;
12906;SDS011;6521;50.498;8.474;2024-01-30T14:06:14;28.90;;;17.17;;
12906;SDS011;6521;50.498;8.474;2024-01-30T14:08:45;21.97;;;18.50;;
12906;SDS011;6521;50.498;8.474;2024-01-30T14:11:17;27.03;;;18.37;;
12906;SDS011;6521;50.498;8.474;2024-01-30T14:13:50;23.40;;;19.50;;
12906;SDS011;6521;50.498;8.474;2024-01-30T14:16:24;25.37;;;19.40;;
12906;SDS011;6521;50.498;8.474;2024-01-30T14:18:55;25.97;;;19.70;;
12906;SDS011;6521;50.498;8.474;2024-01-30T14:21:25;23.17;;;19.77;;
12906;SDS011;6521;50.498;8.474;2024-01-30T14:23:56;25.70;;;19.80;;
12906;SDS011;6521;50.498;8.474;2024-01-30T14:26:27;27.20;;;20.37;;
12906;SDS011;6521;50.498;8.474;2024-01-30T14:28:59;28.13;;;20.87;;
12906;SDS011;6521;50.498;8.474;2024-01-30T14:31:31;27.00;;;19.67;;
12906;SDS011;6521;50.498;8.474;2024-01-30T14:34:01;30.10;;;20.40;;
12906;SDS011;6521;50.498;8.474;2024-01-30T14:36:33;24.70;;;20.63;;
12906;SDS011;6521;50.498;8.474;2024-01-30T14:39:04;26.70;;;20.37;;
12906;SDS011;6521;50.498;8.474;2024-01-30T14:41:36;28.13;;;21.77;;
12906;SDS011;6521;50.498;8.474;2024-01-30T14:44:06;27.67;;;22.53;;
12906;SDS011;6521;50.498;8.474;2024-01-30T14:46:38;24.37;;;20.37;;
12906;SDS011;6521;50.498;8.474;2024-01-30T14:49:09;25.50;;;21.67;;
12906;SDS011;6521;50.498;8.474;2024-01-30T14:51:42;27.93;;;20.53;;
12906;SDS011;6521;50.498;8.474;2024-01-30T14:54:12;28.97;;;21.00;;
12906;SDS011;6521;50.498;8.474;2024-01-30T14:56:44;30.20;;;21.47;;
12906;SDS011;6521;50.498;8.474;2024-01-30T14:59:15;26.77;;;21.87;;
12906;SDS011;6521;50.498;8.474;2024-01-30T15:01:46;32.47;;;22.50;;